createdAt,value
2018-08-23T00:00:56.729Z,18.81
2018-08-23T00:04:06.243Z,18.80
2018-08-23T00:07:15.259Z,18.77
2018-08-23T00:10:19.506Z,18.75
2018-08-23T00:13:24.027Z,18.75
2018-08-23T00:16:35.158Z,18.74
2018-08-23T00:19:39.416Z,18.72
2018-08-23T00:22:43.912Z,18.72
2018-08-23T00:25:48.131Z,18.72
2018-08-23T00:28:52.395Z,18.75
2018-08-23T00:31:59.383Z,18.76
2018-08-23T00:35:03.643Z,18.74
2018-08-23T00:38:08.527Z,18.71
2018-08-23T00:41:12.765Z,18.65
2018-08-23T00:44:17.004Z,18.61
2018-08-23T00:47:23.498Z,18.55
2018-08-23T00:50:48.945Z,18.49
2018-08-23T00:54:05.060Z,18.41
2018-08-23T00:57:09.254Z,18.30
2018-08-23T01:00:18.018Z,18.23
2018-08-23T01:03:22.305Z,18.18
2018-08-23T01:06:43.244Z,18.14
2018-08-23T01:09:47.506Z,18.07
2018-08-23T01:13:00.657Z,18.04
2018-08-23T01:16:04.913Z,18.03
2018-08-23T01:20:16.969Z,18.01
2018-08-23T01:23:21.394Z,17.98
2018-08-23T01:26:25.617Z,17.99
2018-08-23T01:29:31.389Z,18.00
2018-08-23T01:32:35.613Z,18.01
2018-08-23T01:35:41.885Z,18.02
2018-08-23T01:38:46.113Z,18.04
2018-08-23T01:41:50.375Z,18.06
2018-08-23T01:44:54.596Z,18.09
2018-08-23T01:47:58.819Z,18.10
2018-08-23T01:51:03.089Z,18.13
2018-08-23T01:54:07.338Z,18.14
2018-08-23T01:57:11.581Z,18.16
2018-08-23T02:00:20.036Z,18.19
2018-08-23T02:03:24.266Z,18.23
2018-08-23T02:06:35.046Z,18.24
2018-08-23T02:09:39.290Z,18.27
2018-08-23T02:12:48.874Z,18.30
2018-08-23T02:15:53.113Z,18.33
2018-08-23T02:18:57.329Z,18.34
2018-08-23T02:22:01.559Z,18.36
2018-08-23T02:25:06.380Z,18.40
2018-08-23T02:28:11.697Z,18.43
2018-08-23T02:31:16.011Z,18.43
2018-08-23T02:34:20.277Z,18.45
2018-08-23T02:37:24.818Z,18.43
2018-08-23T02:40:29.102Z,18.42
2018-08-23T02:43:33.345Z,18.42
2018-08-23T02:46:37.600Z,18.43
2018-08-23T02:49:44.404Z,18.44
2018-08-23T02:52:48.697Z,18.50
2018-08-23T02:55:53.858Z,18.55
2018-08-23T02:59:02.282Z,18.55
2018-08-23T03:02:11.468Z,18.54
2018-08-23T03:05:19.864Z,18.54
2018-08-23T03:08:41.237Z,18.57
2018-08-23T03:11:48.794Z,18.58
2018-08-23T03:14:53.358Z,18.60
2018-08-23T03:17:57.731Z,18.59
2018-08-23T03:21:07.350Z,18.60
2018-08-23T03:24:11.845Z,18.67
2018-08-23T03:27:16.154Z,18.69
2018-08-23T03:30:20.935Z,18.68
2018-08-23T03:33:25.303Z,18.65
2018-08-23T03:36:29.654Z,18.64
2018-08-23T03:39:33.905Z,18.63
2018-08-23T03:42:38.181Z,18.64
2018-08-23T03:45:42.433Z,18.61
2018-08-23T03:48:51.790Z,18.63
2018-08-23T03:51:56.062Z,18.65
2018-08-23T03:55:01.636Z,18.72
2018-08-23T03:58:05.994Z,18.74
2018-08-23T04:01:14.257Z,18.71
2018-08-23T04:04:18.528Z,18.73
2018-08-23T04:07:22.789Z,18.73
2018-08-23T04:10:27.062Z,18.73
2018-08-23T04:13:31.339Z,18.73
2018-08-23T04:16:35.601Z,18.76
2018-08-23T04:19:43.161Z,18.76
2018-08-23T04:22:47.523Z,18.76
2018-08-23T04:25:51.723Z,18.76
2018-08-23T04:28:55.993Z,18.76
2018-08-23T04:32:00.361Z,18.78
2018-08-23T04:35:12.212Z,18.79
2018-08-23T04:38:16.470Z,18.79
2018-08-23T04:41:20.727Z,18.78
2018-08-23T04:44:25.011Z,18.79
2018-08-23T04:47:29.286Z,18.82
2018-08-23T04:50:33.601Z,18.81
2018-08-23T04:53:37.854Z,18.83
2018-08-23T04:56:42.121Z,18.81
2018-08-23T04:59:46.387Z,18.81
2018-08-23T05:02:50.726Z,18.83
2018-08-23T05:05:54.981Z,18.86
2018-08-23T05:08:59.233Z,18.88
2018-08-23T05:12:03.485Z,18.92
2018-08-23T05:15:07.761Z,18.92
2018-08-23T05:18:12.064Z,18.95
2018-08-23T05:21:16.345Z,18.96
2018-08-23T05:24:23.809Z,18.97
2018-08-23T05:27:28.069Z,19.00
2018-08-23T05:30:32.320Z,19.02
2018-08-23T05:33:36.559Z,19.05
2018-08-23T05:36:40.837Z,19.10
2018-08-23T05:39:52.870Z,19.12
2018-08-23T05:42:57.402Z,19.16
2018-08-23T05:46:02.310Z,19.19
2018-08-23T05:49:06.998Z,19.22
2018-08-23T05:52:11.261Z,19.27
2018-08-23T05:55:15.557Z,19.30
2018-08-23T05:58:23.801Z,19.32
2018-08-23T06:01:28.066Z,19.36
2018-08-23T06:04:42.293Z,19.40
2018-08-23T06:07:46.573Z,19.43
2018-08-23T06:10:56.282Z,19.49
2018-08-23T06:14:00.562Z,19.51
2018-08-23T06:17:05.525Z,19.55
2018-08-23T06:20:09.805Z,19.62
2018-08-23T06:23:14.452Z,19.66
2018-08-23T06:26:18.678Z,19.72
2018-08-23T06:29:26.365Z,19.82
2018-08-23T06:32:30.613Z,19.90
2018-08-23T06:35:38.143Z,19.90
2018-08-23T06:38:46.453Z,19.94
2018-08-23T06:41:53.712Z,20.03
2018-08-23T06:44:57.925Z,20.05
2018-08-23T06:48:03.778Z,20.06
2018-08-23T06:51:11.257Z,20.08
2018-08-23T06:54:15.517Z,20.14
2018-08-23T06:57:19.775Z,20.24
2018-08-23T07:00:26.259Z,20.33
2018-08-23T07:03:30.536Z,20.45
2018-08-23T07:06:36.260Z,20.58
2018-08-23T07:09:42.364Z,20.69
2018-08-23T07:12:46.619Z,20.70
2018-08-23T07:15:54.972Z,20.72
2018-08-23T07:18:59.199Z,20.78
2018-08-23T07:22:03.657Z,20.86
2018-08-23T07:25:14.122Z,20.93
2018-08-23T07:28:18.342Z,21.03
2018-08-23T07:31:22.632Z,21.11
2018-08-23T07:34:26.844Z,21.17
2018-08-23T07:37:33.361Z,21.23
2018-08-23T07:40:37.602Z,21.23
2018-08-23T07:43:41.822Z,21.19
2018-08-23T07:46:46.054Z,21.24
2018-08-23T07:49:51.304Z,21.19
2018-08-23T07:52:55.987Z,21.13
2018-08-23T07:56:18.856Z,21.11
2018-08-23T07:59:23.174Z,21.07
2018-08-23T08:02:28.444Z,21.11
2018-08-23T08:05:34.761Z,21.12
2018-08-23T08:08:42.614Z,21.13
2018-08-23T08:11:52.878Z,21.13
2018-08-23T08:14:57.644Z,21.18
2018-08-23T08:18:18.430Z,21.23
2018-08-23T08:21:22.689Z,21.33
2018-08-23T08:24:26.941Z,21.41
2018-08-23T08:27:31.291Z,21.47
2018-08-23T08:30:42.517Z,21.50
2018-08-23T08:33:46.750Z,21.44
2018-08-23T08:36:51.008Z,21.52
2018-08-23T08:39:55.289Z,21.57
2018-08-23T08:42:59.521Z,21.79
2018-08-23T08:46:03.782Z,22.08
2018-08-23T08:49:08.017Z,22.30
2018-08-23T08:52:12.263Z,22.43
2018-08-23T08:55:17.677Z,22.53
2018-08-23T08:58:21.909Z,22.50
2018-08-23T09:01:27.194Z,22.41
2018-08-23T09:04:35.345Z,22.33
2018-08-23T09:07:41.426Z,22.35
2018-08-23T09:10:45.685Z,22.35
2018-08-23T09:13:50.265Z,22.40
2018-08-23T09:16:54.749Z,22.60
2018-08-23T09:20:04.626Z,22.81
2018-08-23T09:23:08.893Z,22.97
2018-08-23T09:26:13.127Z,23.17
2018-08-23T09:29:34.512Z,23.01
2018-08-23T09:32:38.897Z,22.68
2018-08-23T09:35:43.154Z,22.48
2018-08-23T09:38:47.433Z,22.52
2018-08-23T09:41:51.657Z,22.75
2018-08-23T09:45:07.597Z,22.84
2018-08-23T09:48:11.873Z,22.58
2018-08-23T09:51:21.795Z,22.37
2018-08-23T09:54:27.977Z,22.13
2018-08-23T09:57:32.265Z,21.93
2018-08-23T10:00:42.629Z,21.83
2018-08-23T10:03:52.177Z,21.72
2018-08-23T10:07:02.848Z,21.65
2018-08-23T10:10:12.388Z,21.62
2018-08-23T10:13:21.933Z,21.52
2018-08-23T10:16:31.489Z,21.42
2018-08-23T10:19:41.037Z,21.34
2018-08-23T10:22:46.274Z,21.11
2018-08-23T10:25:51.743Z,21.03
2018-08-23T10:28:56.154Z,21.00
2018-08-23T10:32:00.472Z,21.03
2018-08-23T10:35:04.790Z,21.03
2018-08-23T10:38:09.145Z,20.97
2018-08-23T10:41:13.433Z,21.01
2018-08-23T10:44:17.747Z,21.00
2018-08-23T10:48:29.098Z,20.98
2018-08-23T10:51:33.382Z,20.84
2018-08-23T10:54:37.642Z,20.83
2018-08-23T10:57:41.948Z,20.84
2018-08-23T11:00:46.193Z,20.85
2018-08-23T11:03:50.428Z,20.91
2018-08-23T11:06:58.997Z,21.00
2018-08-23T11:10:08.395Z,21.03
2018-08-23T11:13:17.965Z,21.15
2018-08-23T11:16:27.513Z,21.30
2018-08-23T11:19:36.995Z,21.39
2018-08-23T11:22:41.249Z,21.44
2018-08-23T11:25:45.505Z,21.42
2018-08-23T11:28:50.421Z,21.49
2018-08-23T11:31:54.668Z,21.55
2018-08-23T11:34:58.959Z,21.68
2018-08-23T11:38:03.267Z,21.74
2018-08-23T11:41:07.509Z,21.74
2018-08-23T11:44:11.750Z,21.85
2018-08-23T11:47:15.984Z,21.95
2018-08-23T11:50:20.225Z,21.96
2018-08-23T11:53:24.562Z,22.01
2018-08-23T11:56:28.723Z,22.08
2018-08-23T11:59:32.965Z,21.99
2018-08-23T12:02:37.212Z,22.02
2018-08-23T12:05:41.452Z,22.16
2018-08-23T12:08:45.791Z,22.08
2018-08-23T12:11:50.030Z,22.05
2018-08-23T12:14:55.188Z,22.11
2018-08-23T12:17:59.694Z,22.11
2018-08-23T12:21:04.082Z,22.09
2018-08-23T12:24:08.306Z,22.04
2018-08-23T12:27:12.573Z,22.12
2018-08-23T12:30:16.830Z,22.23
2018-08-23T12:33:21.112Z,22.27
2018-08-23T12:36:30.479Z,22.20
2018-08-23T12:39:40.113Z,22.18
2018-08-23T12:42:47.458Z,22.21
2018-08-23T12:45:51.719Z,22.17
2018-08-23T12:48:58.804Z,22.32
2018-08-23T12:52:03.085Z,22.37
2018-08-23T12:55:07.443Z,22.41
2018-08-23T12:58:13.311Z,22.27
2018-08-23T13:01:17.808Z,22.30
2018-08-23T13:04:22.131Z,22.26
2018-08-23T13:07:26.394Z,22.32
2018-08-23T13:10:30.765Z,22.41
2018-08-23T13:13:35.049Z,22.49
2018-08-23T13:16:39.329Z,22.47
2018-08-23T13:19:43.627Z,22.47
2018-08-23T13:22:47.947Z,22.46
2018-08-23T13:25:55.650Z,22.37
2018-08-23T13:28:59.911Z,22.46
2018-08-23T13:32:04.242Z,22.64
2018-08-23T13:35:08.494Z,22.79
2018-08-23T13:38:12.765Z,22.79
2018-08-23T13:41:17.101Z,22.77
2018-08-23T13:44:21.370Z,22.62
2018-08-23T13:47:25.656Z,22.54
2018-08-23T13:50:29.928Z,22.48
2018-08-23T13:53:34.209Z,22.45
2018-08-23T13:56:38.805Z,22.44
2018-08-23T13:59:43.301Z,22.54
2018-08-23T14:02:47.635Z,22.53
2018-08-23T14:05:52.241Z,22.55
2018-08-23T14:08:56.554Z,22.53
2018-08-23T14:12:00.785Z,22.61
2018-08-23T14:15:05.054Z,22.56
2018-08-23T14:18:09.868Z,22.60
2018-08-23T14:21:14.145Z,22.67
2018-08-23T14:24:19.979Z,22.61
2018-08-23T14:27:24.409Z,22.56
2018-08-23T14:30:28.766Z,22.56
2018-08-23T14:33:33.157Z,22.47
2018-08-23T14:36:38.445Z,22.41
2018-08-23T14:39:43.101Z,22.36
2018-08-23T14:42:47.557Z,22.37
2018-08-23T14:45:52.078Z,22.35
2018-08-23T14:48:56.926Z,22.37
2018-08-23T14:52:01.648Z,22.42
2018-08-23T14:55:06.451Z,22.45
2018-08-23T14:58:11.891Z,22.48
2018-08-23T15:01:16.198Z,22.50
2018-08-23T15:04:20.558Z,22.54
2018-08-23T15:07:24.801Z,22.53
2018-08-23T15:10:29.123Z,22.48
2018-08-23T15:13:33.390Z,22.51
2018-08-23T15:16:37.685Z,22.53
2018-08-23T15:19:41.933Z,22.52
2018-08-23T15:25:49.585Z,22.63
2018-08-23T15:28:53.886Z,22.64
2018-08-23T15:31:58.169Z,22.68
2018-08-23T15:35:02.570Z,22.58
2018-08-23T15:38:07.409Z,22.49
2018-08-23T15:41:11.701Z,22.47
2018-08-23T15:44:15.968Z,22.42
2018-08-23T15:47:20.334Z,22.42
2018-08-23T15:50:25.484Z,22.49
2018-08-23T15:53:29.773Z,22.47
2018-08-23T15:56:34.076Z,22.45
2018-08-23T15:59:38.328Z,22.48
2018-08-23T16:02:42.585Z,22.51
2018-08-23T16:05:46.846Z,22.47
2018-08-23T16:08:51.128Z,22.48
2018-08-23T16:11:55.357Z,22.46
2018-08-23T16:14:59.630Z,22.43
2018-08-23T16:19:11.853Z,22.42
2018-08-23T16:22:16.095Z,22.45
2018-08-23T16:25:20.373Z,22.44
2018-08-23T16:28:24.641Z,22.48
2018-08-23T16:31:28.888Z,22.49
2018-08-23T16:34:33.189Z,22.50
2018-08-23T16:37:37.545Z,22.46
2018-08-23T16:40:41.782Z,22.53
2018-08-23T16:43:46.005Z,22.54
2018-08-23T16:46:50.296Z,22.51
2018-08-23T16:49:54.597Z,22.55
2018-08-23T16:52:58.901Z,22.47
2018-08-23T16:56:03.174Z,22.46
2018-08-23T16:59:07.413Z,22.43
2018-08-23T17:02:11.652Z,22.38
2018-08-23T17:05:15.892Z,22.32
2018-08-23T17:08:20.180Z,22.25
2018-08-23T17:11:24.453Z,22.27
2018-08-23T17:14:28.773Z,22.26
2018-08-23T17:17:34.325Z,22.23
2018-08-23T17:20:38.597Z,22.23
2018-08-23T17:23:42.896Z,22.26
2018-08-23T17:26:47.323Z,22.23
2018-08-23T17:29:51.750Z,22.19
2018-08-23T17:32:56.055Z,22.15
2018-08-23T17:36:00.470Z,22.13
2018-08-23T17:39:06.469Z,22.07
2018-08-23T17:42:10.789Z,22.04
2018-08-23T17:45:15.481Z,21.99
2018-08-23T17:48:20.477Z,21.97
2018-08-23T17:51:26.059Z,21.96
2018-08-23T17:54:31.082Z,21.93
2018-08-23T17:57:35.461Z,21.94
2018-08-23T18:00:40.051Z,21.87
2018-08-23T18:03:44.620Z,21.83
2018-08-23T18:06:49.026Z,21.80
2018-08-23T18:09:53.386Z,21.79
2018-08-23T18:12:57.868Z,21.73
2018-08-23T18:16:07.473Z,21.67
2018-08-23T18:19:12.306Z,21.62
2018-08-23T18:22:16.853Z,21.66
2018-08-23T18:25:21.153Z,21.72
2018-08-23T18:28:25.373Z,21.68
2018-08-23T18:31:29.651Z,21.66
2018-08-23T18:34:33.953Z,21.61
2018-08-23T18:37:38.621Z,21.59
2018-08-23T18:40:42.834Z,21.64
2018-08-23T18:43:47.070Z,21.65
2018-08-23T18:46:51.341Z,21.59
2018-08-23T18:49:55.609Z,21.55
2018-08-23T18:52:59.905Z,21.55
2018-08-23T18:56:04.764Z,21.54
2018-08-23T18:59:09.050Z,21.51
2018-08-23T19:02:13.293Z,21.49
2018-08-23T19:05:17.568Z,21.47
2018-08-23T19:08:21.835Z,21.46
2018-08-23T19:11:26.143Z,21.44
2018-08-23T19:14:30.458Z,21.45
2018-08-23T19:17:36.276Z,21.40
2018-08-23T19:20:40.601Z,21.36
2018-08-23T19:23:44.872Z,21.22
2018-08-23T19:26:49.111Z,21.01
2018-08-23T19:29:53.338Z,20.87
2018-08-23T19:32:57.569Z,20.75
2018-08-23T19:36:01.878Z,20.65
2018-08-23T19:39:10.362Z,20.57
2018-08-23T19:42:14.614Z,20.51
2018-08-23T19:45:18.865Z,20.45
2018-08-23T19:48:23.162Z,20.44
2018-08-23T19:51:27.405Z,20.38
2018-08-23T19:54:31.637Z,20.31
2018-08-23T19:57:35.864Z,20.34
2018-08-23T20:00:40.107Z,20.32
2018-08-23T20:03:44.365Z,20.30
2018-08-23T20:06:48.695Z,20.33
2018-08-23T20:09:52.868Z,20.33
2018-08-23T20:12:57.116Z,20.32
2018-08-23T20:16:01.352Z,20.33
2018-08-23T20:19:06.002Z,20.28
2018-08-23T20:22:10.221Z,20.27
2018-08-23T20:25:14.491Z,20.23
2018-08-23T20:28:19.097Z,20.23
2018-08-23T20:31:23.369Z,20.20
2018-08-23T20:34:27.644Z,20.15
2018-08-23T20:37:31.858Z,20.12
2018-08-23T20:40:36.114Z,20.10
2018-08-23T20:43:40.329Z,20.09
2018-08-23T20:46:44.611Z,20.11
2018-08-23T20:49:48.856Z,20.04
2018-08-23T20:52:53.115Z,20.02
2018-08-23T20:55:57.353Z,20.04
2018-08-23T20:59:01.623Z,20.08
2018-08-23T21:02:05.870Z,20.06
2018-08-23T21:05:10.113Z,20.05
2018-08-23T21:08:14.365Z,20.02
2018-08-23T21:11:18.604Z,20.03
2018-08-23T21:14:22.844Z,19.99
2018-08-23T21:17:27.093Z,19.99
2018-08-23T21:20:31.333Z,19.99
2018-08-23T21:23:35.596Z,19.98
2018-08-23T21:26:39.841Z,19.94
2018-08-23T21:29:44.070Z,20.02
2018-08-23T21:32:48.302Z,20.00
2018-08-23T21:35:52.558Z,19.98
2018-08-23T21:38:56.758Z,20.00
2018-08-23T21:42:00.985Z,19.89
2018-08-23T21:45:05.296Z,19.80
2018-08-23T21:48:09.566Z,19.73
2018-08-23T21:51:13.806Z,19.62
2018-08-23T21:54:18.066Z,19.58
2018-08-23T21:57:22.479Z,19.52
2018-08-23T22:00:26.805Z,19.47
2018-08-23T22:03:31.028Z,19.46
2018-08-23T22:06:35.285Z,19.45
2018-08-23T22:09:39.558Z,19.45
2018-08-23T22:12:43.809Z,19.49
2018-08-23T22:15:48.837Z,19.45
2018-08-23T22:18:53.068Z,19.46
2018-08-23T22:21:57.280Z,19.48
2018-08-23T22:25:01.561Z,19.49
2018-08-23T22:28:06.328Z,19.47
2018-08-23T22:31:10.582Z,19.44
2018-08-23T22:34:14.824Z,19.44
2018-08-23T22:37:19.045Z,19.45
2018-08-23T22:40:23.276Z,19.40
2018-08-23T22:43:27.497Z,19.40
2018-08-23T22:46:31.733Z,19.38
2018-08-23T22:49:35.995Z,19.36
2018-08-23T22:52:40.211Z,19.36
2018-08-23T22:55:44.440Z,19.33
2018-08-23T22:58:48.704Z,19.34
2018-08-23T23:01:52.949Z,19.33
2018-08-23T23:04:57.168Z,19.31
2018-08-23T23:08:06.645Z,19.36
2018-08-23T23:11:10.860Z,19.34
2018-08-23T23:14:15.113Z,19.29
2018-08-23T23:17:19.344Z,19.29
2018-08-23T23:20:23.601Z,19.30
2018-08-23T23:23:27.821Z,19.27
2018-08-23T23:26:32.052Z,19.24
2018-08-23T23:29:36.437Z,19.23
2018-08-23T23:32:40.683Z,19.22
2018-08-23T23:35:44.906Z,19.18
2018-08-23T23:38:49.133Z,19.22
2018-08-23T23:41:53.349Z,19.16
2018-08-23T23:44:57.566Z,19.07
2018-08-23T23:48:01.793Z,18.96
2018-08-23T23:51:06.376Z,18.90
2018-08-23T23:54:10.600Z,18.80
2018-08-23T23:57:14.820Z,18.69
